Time;durP1;ratioP1;P1;durP2;ratioP2;P2;SDS_P1;SDS_P2;PMS_P1;PMS_P2;Temp;Humidity;BMP_temperature;BMP_pressure;BME280_temperature;BME280_humidity;BME280_pressure;Samples;Min_cycle;Max_cycle;Signal;HPM_P1;HPM_P2
2022/07/01 00:01:13;;;;;;;13.95;8.25;;;28.30;66.50;;;;;;6159787;28;80593;-64
2022/07/01 00:04:14;;;;;;;15.18;8.15;;;28.20;65.60;;;;;;6158468;28;81040;-64
2022/07/01 00:07:15;;;;;;;10.88;8.80;;;28.20;66.60;;;;;;6158643;28;81598;-64
2022/07/01 00:10:16;;;;;;;11.50;8.27;;;28.20;65.80;;;;;;6158872;28;80010;-64
2022/07/01 00:13:16;;;;;;;15.40;8.93;;;28.20;66.50;;;;;;6160183;28;80645;-64
2022/07/01 00:16:17;;;;;;;15.05;8.50;;;28.10;65.80;;;;;;6158636;28;80834;-64
2022/07/01 00:19:17;;;;;;;13.48;8.73;;;28.00;66.30;;;;;;6158519;28;80619;-64
2022/07/01 00:22:18;;;;;;;14.27;7.95;;;28.00;66.00;;;;;;6155676;28;80925;-64
2022/07/01 00:25:18;;;;;;;14.20;7.90;;;28.00;66.50;;;;;;6159456;28;80187;-64
2022/07/01 00:28:19;;;;;;;13.50;8.70;;;28.10;66.30;;;;;;6158540;28;80416;-64
2022/07/01 00:31:19;;;;;;;15.57;9.15;;;28.10;66.40;;;;;;6152816;28;80104;-65
2022/07/01 00:34:20;;;;;;;18.67;9.02;;;28.10;66.30;;;;;;6157805;28;81076;-65
2022/07/01 00:37:20;;;;;;;13.52;8.98;;;28.00;66.80;;;;;;6147383;28;81014;-65
2022/07/01 00:40:21;;;;;;;9.88;8.02;;;28.00;66.70;;;;;;6160147;28;80709;-65
2022/07/01 00:43:24;;;;;;;14.07;8.73;;;28.10;67.00;;;;;;6159642;28;80472;-64
2022/07/01 00:46:25;;;;;;;10.52;8.27;;;28.10;66.90;;;;;;6151816;28;81171;-64
2022/07/01 00:49:26;;;;;;;12.95;8.73;;;28.10;66.90;;;;;;6158639;28;80532;-64
2022/07/01 00:52:26;;;;;;;14.82;9.00;;;28.10;66.30;;;;;;6150388;28;82445;-64
2022/07/01 00:55:26;;;;;;;15.63;8.32;;;28.20;67.30;;;;;;6158265;28;81235;-65
2022/07/01 00:58:28;;;;;;;12.70;8.02;;;28.10;66.00;;;;;;6159804;28;80774;-65
2022/07/01 01:01:29;;;;;;;22.63;8.25;;;28.10;66.50;;;;;;6158941;28;80455;-64
2022/07/01 01:04:29;;;;;;;14.82;8.10;;;28.10;66.70;;;;;;6165230;28;80900;-64
2022/07/01 01:07:30;;;;;;;13.15;9.20;;;28.10;66.30;;;;;;6160345;28;80611;-65
2022/07/01 01:10:30;;;;;;;11.95;8.48;;;28.10;66.20;;;;;;6158331;28;80464;-64
2022/07/01 01:13:31;;;;;;;12.38;7.93;;;28.10;66.40;;;;;;6159603;28;80691;-65
2022/07/01 01:16:33;;;;;;;14.07;8.48;;;28.10;66.40;;;;;;6159579;28;80267;-65
2022/07/01 01:19:34;;;;;;;12.40;8.43;;;28.10;67.00;;;;;;6158686;28;80570;-64
2022/07/01 01:22:34;;;;;;;13.25;7.53;;;28.10;65.70;;;;;;6158772;28;81898;-65
2022/07/01 01:25:35;;;;;;;13.70;8.63;;;28.10;66.40;;;;;;6158780;28;80659;-65
2022/07/01 01:28:35;;;;;;;9.30;7.57;;;28.10;65.90;;;;;;6157491;28;81526;-65
2022/07/01 01:31:36;;;;;;;11.88;8.18;;;28.00;65.80;;;;;;6146928;28;81614;-65
2022/07/01 01:34:36;;;;;;;10.32;8.25;;;28.00;65.80;;;;;;6158449;28;80856;-64
2022/07/01 01:37:37;;;;;;;12.38;8.55;;;27.90;65.80;;;;;;6158597;28;80461;-65
2022/07/01 01:40:37;;;;;;;13.25;8.25;;;27.80;65.80;;;;;;6157182;28;83594;-64
2022/07/01 01:43:38;;;;;;;12.07;8.43;;;27.80;65.90;;;;;;6158545;28;81766;-64
2022/07/01 01:46:38;;;;;;;13.27;8.60;;;27.80;66.00;;;;;;6158552;28;80957;-65
2022/07/01 01:49:39;;;;;;;12.52;8.82;;;27.70;66.00;;;;;;6145449;28;80350;-64
2022/07/01 01:52:43;;;;;;;12.82;8.68;;;27.60;66.10;;;;;;6158578;28;80345;-65
2022/07/01 01:55:43;;;;;;;18.38;9.07;;;27.70;66.30;;;;;;6145793;28;80474;-63
2022/07/01 01:58:44;;;;;;;15.32;8.38;;;27.70;66.10;;;;;;6158247;28;81353;-64
2022/07/01 02:01:44;;;;;;;18.73;8.77;;;27.70;66.10;;;;;;6156829;28;80406;-65
2022/07/01 02:04:45;;;;;;;12.90;8.07;;;27.80;66.00;;;;;;6147091;28;86372;-65
2022/07/01 02:07:45;;;;;;;12.00;8.52;;;27.80;66.20;;;;;;6158426;28;81176;-64
2022/07/01 02:10:46;;;;;;;17.25;8.30;;;27.80;66.20;;;;;;6154631;28;80271;-64
2022/07/01 02:13:47;;;;;;;13.45;8.25;;;27.80;66.10;;;;;;6152361;28;80648;-65
2022/07/01 02:16:47;;;;;;;16.60;8.40;;;27.80;66.40;;;;;;6155709;28;80461;-65
2022/07/01 02:19:48;;;;;;;16.10;8.73;;;27.90;66.30;;;;;;6156628;28;80550;-65
2022/07/01 02:22:49;;;;;;;12.95;8.55;;;27.90;66.10;;;;;;6152164;28;80414;-65
2022/07/01 02:25:49;;;;;;;10.65;8.02;;;27.90;65.70;;;;;;6161871;28;80444;-64
2022/07/01 02:28:50;;;;;;;14.95;8.13;;;27.90;66.40;;;;;;6160857;28;83387;-66
2022/07/01 02:31:50;;;;;;;12.43;7.55;;;27.90;65.50;;;;;;6162099;28;80368;-65
2022/07/01 02:34:51;;;;;;;12.07;7.88;;;27.90;66.10;;;;;;6161875;28;80331;-64
2022/07/01 02:37:51;;;;;;;12.13;8.15;;;27.90;65.80;;;;;;6152304;28;80854;-64
2022/07/01 02:40:52;;;;;;;13.13;8.55;;;28.00;65.90;;;;;;6159117;28;80287;-64
2022/07/01 02:43:52;;;;;;;11.88;8.60;;;27.90;66.30;;;;;;6160746;28;80599;-64
2022/07/01 02:46:53;;;;;;;11.15;8.90;;;28.00;65.40;;;;;;6160338;28;81241;-64
2022/07/01 02:49:53;;;;;;;14.90;8.93;;;27.90;65.00;;;;;;6161500;28;80415;-64
2022/07/01 02:52:54;;;;;;;15.07;8.38;;;27.80;65.10;;;;;;6153377;28;80667;-64
2022/07/01 02:55:54;;;;;;;16.33;9.68;;;27.80;65.40;;;;;;6161255;28;80352;-65
2022/07/01 02:58:54;;;;;;;21.05;9.10;;;27.80;65.20;;;;;;6152848;28;80541;-65
2022/07/01 03:01:55;;;;;;;14.40;9.05;;;27.80;65.00;;;;;;6154945;28;80445;-64
2022/07/01 03:04:55;;;;;;;13.95;8.77;;;27.80;65.10;;;;;;6153442;28;80515;-64
2022/07/01 03:07:56;;;;;;;14.85;8.85;;;27.70;65.10;;;;;;6160058;28;80327;-65
2022/07/01 03:10:56;;;;;;;14.98;9.15;;;27.70;64.90;;;;;;6161847;28;80318;-64
2022/07/01 03:13:57;;;;;;;13.60;8.70;;;27.70;64.90;;;;;;6160792;28;80311;-63
2022/07/01 03:16:57;;;;;;;13.60;8.65;;;27.70;65.10;;;;;;6159023;28;81486;-64
2022/07/01 03:19:58;;;;;;;13.52;9.18;;;27.80;65.10;;;;;;6159613;28;80670;-62
2022/07/01 03:22:58;;;;;;;12.80;8.75;;;27.80;65.50;;;;;;6161553;28;80337;-66
2022/07/01 03:25:59;;;;;;;14.38;9.85;;;27.80;65.00;;;;;;6157166;28;80860;-64
2022/07/01 03:28:59;;;;;;;14.85;8.45;;;27.80;65.10;;;;;;6160211;28;80921;-64
2022/07/01 03:32:00;;;;;;;13.48;9.90;;;27.80;64.70;;;;;;6159247;28;80499;-64
2022/07/01 03:35:35;;;;;;;11.30;8.52;;;27.80;65.00;;;;;;6160062;28;81443;-64
2022/07/01 03:38:21;;;;;;;13.32;8.95;;;27.80;65.20;;;;;;6158059;28;80600;-64
2022/07/01 03:41:21;;;;;;;12.90;9.32;;;27.80;65.20;;;;;;6160857;28;81340;-65
2022/07/01 03:44:21;;;;;;;11.07;8.63;;;27.90;65.50;;;;;;6161153;28;80338;-68
2022/07/01 03:47:22;;;;;;;18.23;9.85;;;27.90;64.90;;;;;;6161009;28;80276;-64
2022/07/01 03:50:22;;;;;;;17.20;10.38;;;27.90;65.00;;;;;;6161098;28;80442;-64
2022/07/01 03:56:42;;;;;;;17.15;10.70;;;27.90;65.80;;;;;;6136833;28;83018;-64
2022/07/01 03:59:43;;;;;;;14.85;8.95;;;27.90;66.20;;;;;;6156168;28;82841;-61
2022/07/01 04:02:43;;;;;;;20.38;11.00;;;28.00;65.70;;;;;;6160337;28;82953;-66
2022/07/01 04:05:44;;;;;;;13.48;8.75;;;28.00;65.60;;;;;;6156279;28;83001;-68
2022/07/01 04:08:44;;;;;;;19.55;9.82;;;28.00;65.90;;;;;;6151515;28;83376;-62
2022/07/01 04:11:44;;;;;;;16.02;10.43;;;28.00;65.60;;;;;;6153669;28;80882;-63
2022/07/01 04:14:45;;;;;;;19.60;10.30;;;28.00;65.60;;;;;;6156583;28;83205;-61
2022/07/01 04:17:45;;;;;;;14.32;9.77;;;28.10;66.40;;;;;;6143576;28;83265;-63
2022/07/01 04:22:32;;;;;;;15.30;10.27;;;28.10;65.80;;;;;;6159976;28;82877;-61
2022/07/01 04:24:07;;;;;;;15.13;10.15;;;28.10;65.60;;;;;;6156632;28;84922;-63
2022/07/01 04:27:07;;;;;;;13.90;11.10;;;28.10;64.90;;;;;;6145912;28;83610;-68
2022/07/01 04:30:08;;;;;;;17.13;10.27;;;28.10;64.40;;;;;;6146514;28;83274;-68
2022/07/01 04:33:08;;;;;;;11.65;9.30;;;28.10;65.60;;;;;;6145455;28;82866;-67
2022/07/01 04:36:09;;;;;;;13.80;9.23;;;28.20;65.40;;;;;;6159679;28;83424;-65
2022/07/01 04:39:09;;;;;;;16.30;9.60;;;28.20;65.50;;;;;;6157990;28;81519;-64
2022/07/01 04:42:10;;;;;;;15.50;10.18;;;28.20;65.50;;;;;;6159107;28;80462;-65
2022/07/01 04:45:10;;;;;;;13.55;9.48;;;28.20;65.80;;;;;;6156188;28;83009;-67
2022/07/01 04:48:10;;;;;;;20.23;10.23;;;28.20;65.30;;;;;;6143468;28;84333;-69
2022/07/01 04:51:11;;;;;;;12.88;9.70;;;28.20;66.30;;;;;;6144322;28;83030;-68
2022/07/01 04:54:11;;;;;;;12.75;9.27;;;28.30;65.50;;;;;;6158165;28;83353;-65
2022/07/01 04:57:12;;;;;;;14.48;9.82;;;28.20;64.70;;;;;;6157923;28;80943;-64
2022/07/01 05:00:12;;;;;;;12.18;9.77;;;28.30;65.00;;;;;;6158621;28;80554;-62
2022/07/01 05:03:13;;;;;;;14.25;10.32;;;28.30;64.40;;;;;;6154867;28;81389;-64
2022/07/01 05:06:13;;;;;;;18.13;10.55;;;28.20;63.80;;;;;;6154697;28;83157;-62
2022/07/01 05:09:14;;;;;;;22.27;11.48;;;28.10;64.10;;;;;;6153524;28;83836;-61
2022/07/01 05:12:14;;;;;;;18.75;11.15;;;28.10;64.40;;;;;;6155531;28;83072;-62
2022/07/01 05:15:15;;;;;;;19.73;10.75;;;28.00;64.70;;;;;;6155640;28;83957;-61
2022/07/01 05:24:53;;;;;;;19.05;11.40;;;28.00;64.90;;;;;;6156526;28;83405;-62
2022/07/01 05:27:54;;;;;;;20.85;10.73;;;27.90;64.80;;;;;;6154643;28;83263;-62
2022/07/01 05:30:54;;;;;;;21.20;10.63;;;27.90;64.80;;;;;;6155854;28;82800;-61
2022/07/01 05:33:55;;;;;;;19.90;11.35;;;27.90;65.20;;;;;;6156090;28;83145;-62
2022/07/01 05:36:55;;;;;;;18.45;11.65;;;27.90;65.60;;;;;;6156211;28;82906;-60
2022/07/01 05:39:56;;;;;;;18.17;10.25;;;27.90;65.80;;;;;;6156198;28;83046;-63
2022/07/01 05:42:56;;;;;;;20.73;10.98;;;27.90;66.00;;;;;;6151275;28;84208;-60
2022/07/01 05:45:57;;;;;;;15.60;10.85;;;27.90;65.40;;;;;;6158814;28;82820;-61
2022/07/01 05:48:57;;;;;;;15.27;10.50;;;27.90;65.30;;;;;;6155877;28;83973;-61
2022/07/01 05:51:58;;;;;;;13.73;10.05;;;27.90;65.70;;;;;;6156538;28;83569;-62
2022/07/01 05:54:58;;;;;;;16.83;10.40;;;28.00;66.10;;;;;;6155899;28;83119;-72
2022/07/01 05:58:01;;;;;;;18.20;10.13;;;28.00;65.80;;;;;;6158738;28;86651;-61
2022/07/01 06:01:01;;;;;;;15.70;10.52;;;28.00;65.90;;;;;;6150445;28;83025;-61
2022/07/01 06:04:02;;;;;;;18.00;11.13;;;28.00;66.00;;;;;;6155507;28;83110;-65
2022/07/01 06:07:03;;;;;;;19.17;11.45;;;28.10;66.00;;;;;;6147388;28;83490;-68
2022/07/01 06:10:03;;;;;;;23.13;10.93;;;28.10;66.20;;;;;;6159201;28;83138;-62
2022/07/01 06:13:04;;;;;;;18.02;11.07;;;28.10;65.10;;;;;;6155227;28;84145;-61
2022/07/01 06:16:04;;;;;;;16.20;10.05;;;28.10;64.70;;;;;;6149824;28;82974;-63
2022/07/01 06:19:06;;;;;;;14.40;9.93;;;28.10;64.80;;;;;;6154047;28;83307;-62
2022/07/01 06:22:06;;;;;;;19.80;10.52;;;28.10;64.70;;;;;;6161261;28;81619;-64
2022/07/01 06:25:07;;;;;;;17.27;9.50;;;28.10;64.60;;;;;;6151090;28;83083;-64
2022/07/01 06:28:07;;;;;;;16.17;10.40;;;28.10;64.60;;;;;;6156922;28;83126;-63
2022/07/01 06:31:08;;;;;;;20.42;10.98;;;28.10;64.90;;;;;;6152477;28;83052;-61
2022/07/01 06:34:08;;;;;;;17.40;10.48;;;28.10;65.50;;;;;;6155246;28;84484;-61
2022/07/01 06:37:09;;;;;;;15.93;10.07;;;28.20;65.30;;;;;;6157359;28;84079;-63
2022/07/01 06:40:09;;;;;;;20.27;10.98;;;28.20;65.00;;;;;;6151909;28;84523;-62
2022/07/01 06:43:10;;;;;;;24.80;11.07;;;28.20;65.00;;;;;;6152247;28;84192;-62
2022/07/01 06:46:10;;;;;;;17.95;10.38;;;28.20;64.80;;;;;;6158547;28;83964;-62
2022/07/01 06:49:11;;;;;;;18.65;10.13;;;28.20;64.90;;;;;;6144428;28;83499;-62
2022/07/01 06:52:11;;;;;;;17.55;10.40;;;28.20;65.00;;;;;;6147243;28;83089;-62
2022/07/01 06:55:12;;;;;;;18.00;10.85;;;28.30;64.80;;;;;;6152439;28;83473;-62
2022/07/01 06:58:12;;;;;;;17.83;10.48;;;28.30;64.40;;;;;;6154377;28;83886;-62
2022/07/01 07:01:13;;;;;;;20.17;12.07;;;28.30;64.40;;;;;;6156974;28;83247;-63
2022/07/01 07:04:13;;;;;;;19.33;12.07;;;28.30;64.60;;;;;;6150714;28;83383;-63
2022/07/01 07:07:13;;;;;;;35.47;12.05;;;28.30;64.20;;;;;;6154491;28;83138;-62
2022/07/01 07:10:14;;;;;;;22.35;10.77;;;28.30;64.00;;;;;;6155688;28;84273;-63
2022/07/01 07:13:14;;;;;;;14.25;10.18;;;28.40;64.20;;;;;;6147643;28;83144;-63
2022/07/01 07:16:15;;;;;;;13.18;9.85;;;28.40;64.60;;;;;;6159214;28;83237;-62
2022/07/01 07:19:15;;;;;;;15.43;10.50;;;28.40;64.20;;;;;;6156240;28;82791;-71
2022/07/01 07:22:16;;;;;;;16.80;10.18;;;28.50;63.90;;;;;;6143119;28;82989;-66
2022/07/01 07:25:16;;;;;;;17.02;10.68;;;28.50;63.50;;;;;;6158386;28;83101;-62
2022/07/01 07:28:17;;;;;;;15.80;10.48;;;28.50;63.20;;;;;;6154465;28;84339;-62
2022/07/01 07:31:17;;;;;;;14.50;9.70;;;28.50;63.00;;;;;;6154529;28;82920;-63
2022/07/01 07:34:18;;;;;;;20.08;11.15;;;28.50;62.50;;;;;;6159625;28;83715;-63
2022/07/01 07:37:18;;;;;;;14.95;10.27;;;28.50;62.50;;;;;;6151733;28;82832;-61
2022/07/01 07:40:19;;;;;;;14.50;9.60;;;28.50;62.40;;;;;;6157199;28;83300;-61
2022/07/01 07:43:19;;;;;;;18.63;11.30;;;28.50;62.60;;;;;;6159600;28;83106;-61
2022/07/01 07:46:20;;;;;;;19.63;10.77;;;28.60;62.20;;;;;;6152863;28;83017;-62
2022/07/01 07:49:20;;;;;;;26.95;9.90;;;28.50;62.30;;;;;;6157559;28;83376;-60
2022/07/01 07:52:21;;;;;;;25.00;11.27;;;28.60;62.20;;;;;;6156827;28;83316;-60
2022/07/01 07:55:22;;;;;;;16.23;10.32;;;28.60;62.50;;;;;;6151738;28;82995;-59
2022/07/01 07:58:22;;;;;;;18.40;9.27;;;28.60;62.20;;;;;;6157771;28;83188;-60
2022/07/01 08:01:23;;;;;;;12.40;9.73;;;28.60;63.20;;;;;;6163103;28;81703;-63
2022/07/01 08:04:23;;;;;;;13.85;9.35;;;28.60;63.00;;;;;;6157439;28;80820;-62
2022/07/01 08:07:24;;;;;;;12.98;9.73;;;28.60;63.00;;;;;;6162689;28;81208;-61
2022/07/01 08:10:24;;;;;;;15.57;9.85;;;28.70;62.90;;;;;;6160229;28;80392;-62
2022/07/01 08:13:25;;;;;;;18.42;9.63;;;28.70;63.70;;;;;;6158870;28;80662;-62
2022/07/01 08:16:25;;;;;;;21.80;10.50;;;28.70;62.60;;;;;;6157621;28;80649;-62
2022/07/01 08:19:25;;;;;;;15.82;10.65;;;28.70;62.50;;;;;;6152709;28;83606;-61
2022/07/01 08:22:26;;;;;;;18.42;9.40;;;28.70;62.60;;;;;;6152037;28;82935;-61
2022/07/01 08:25:26;;;;;;;17.63;9.60;;;28.70;63.10;;;;;;6155173;28;84428;-62
2022/07/01 08:28:27;;;;;;;12.73;9.98;;;28.70;63.10;;;;;;6151582;28;80530;-61
2022/07/01 08:31:28;;;;;;;14.27;9.82;;;28.70;63.00;;;;;;6157089;28;83293;-61
2022/07/01 08:34:28;;;;;;;14.43;9.52;;;28.80;63.90;;;;;;6162697;28;83428;-64
2022/07/01 08:37:29;;;;;;;15.35;9.50;;;28.80;63.30;;;;;;6160677;28;80726;-61
2022/07/01 08:40:29;;;;;;;16.92;9.27;;;28.80;62.60;;;;;;6159894;28;81548;-61
2022/07/01 08:43:30;;;;;;;14.25;9.05;;;29.00;60.40;;;;;;6159593;28;80343;-61
2022/07/01 08:46:30;;;;;;;11.30;8.80;;;29.00;61.60;;;;;;6158510;28;80696;-62
2022/07/01 08:49:31;;;;;;;11.35;8.70;;;29.00;62.60;;;;;;6145841;28;82054;-62
2022/07/01 08:52:31;;;;;;;14.18;9.20;;;28.90;60.90;;;;;;6153470;28;81546;-62
2022/07/01 08:55:31;;;;;;;18.15;9.05;;;28.90;61.30;;;;;;6158748;28;80100;-62
2022/07/01 08:58:32;;;;;;;11.50;8.57;;;28.90;62.40;;;;;;6158307;28;80961;-61
2022/07/01 09:01:33;;;;;;;31.55;8.48;;;29.00;61.60;;;;;;6159566;28;81056;-62
2022/07/01 09:04:33;;;;;;;10.55;8.27;;;29.00;61.30;;;;;;6159072;28;82033;-62
2022/07/01 09:07:34;;;;;;;10.20;8.45;;;28.80;61.70;;;;;;6157628;28;81332;-62
2022/07/01 09:10:34;;;;;;;9.75;8.30;;;28.50;59.50;;;;;;6157787;28;81498;-62
2022/07/01 09:13:35;;;;;;;12.10;9.02;;;28.20;57.60;;;;;;6148874;28;81179;-73
2022/07/01 09:16:35;;;;;;;11.95;8.18;;;28.00;56.50;;;;;;6143338;28;80559;-68
2022/07/01 09:19:36;;;;;;;13.80;7.80;;;27.70;55.20;;;;;;6150972;28;81557;-63
2022/07/01 09:22:37;;;;;;;10.57;7.93;;;27.60;55.40;;;;;;6142759;28;81432;-63
2022/07/01 09:25:37;;;;;;;13.10;7.32;;;27.50;55.20;;;;;;6139521;28;85170;-63
2022/07/01 09:28:38;;;;;;;9.85;7.97;;;27.40;55.20;;;;;;6144850;28;81370;-63
2022/07/01 09:31:38;;;;;;;10.00;7.60;;;27.30;55.00;;;;;;6142680;28;81337;-63
2022/07/01 09:34:39;;;;;;;11.43;7.93;;;27.20;54.80;;;;;;6137771;28;81337;-63
2022/07/01 09:37:40;;;;;;;11.48;7.25;;;27.10;54.80;;;;;;6136358;28;81657;-62
2022/07/01 09:40:41;;;;;;;13.07;6.65;;;27.00;57.10;;;;;;6155232;28;80848;-68
2022/07/01 09:43:41;;;;;;;8.75;6.38;;;27.30;59.00;;;;;;6153436;28;81957;-66
2022/07/01 09:46:41;;;;;;;8.38;7.53;;;27.50;58.90;;;;;;6142395;28;80845;-72
2022/07/01 09:49:42;;;;;;;11.05;7.80;;;27.70;59.00;;;;;;6144999;28;80880;-65
2022/07/01 09:52:42;;;;;;;10.75;6.93;;;27.70;58.20;;;;;;6157279;28;80852;-62
2022/07/01 09:55:43;;;;;;;9.63;6.22;;;27.50;56.00;;;;;;6150628;28;80503;-63
2022/07/01 09:58:43;;;;;;;14.00;8.10;;;27.40;55.00;;;;;;6144456;28;81744;-64
2022/07/01 10:01:44;;;;;;;12.82;8.25;;;27.40;54.70;;;;;;6139502;28;80841;-66
2022/07/01 10:04:44;;;;;;;10.48;7.43;;;27.30;54.30;;;;;;6158612;28;81331;-63
2022/07/01 10:07:45;;;;;;;11.52;7.70;;;27.10;54.20;;;;;;6154400;28;80739;-63
2022/07/01 10:10:45;;;;;;;11.23;7.18;;;27.00;53.90;;;;;;6154719;28;80602;-64
2022/07/01 10:13:46;;;;;;;12.07;7.32;;;27.00;54.20;;;;;;6148446;28;80485;-63
2022/07/01 10:16:49;;;;;;;11.98;7.03;;;26.90;54.20;;;;;;6139542;28;81484;-64
2022/07/01 10:19:50;;;;;;;12.48;6.78;;;26.90;54.10;;;;;;6151129;28;81320;-64
2022/07/01 10:22:50;;;;;;;13.27;6.60;;;26.90;54.10;;;;;;6148629;28;81415;-64
2022/07/01 10:25:51;;;;;;;9.00;6.75;;;26.80;53.90;;;;;;6150237;28;81029;-64
2022/07/01 10:28:53;;;;;;;13.88;7.22;;;26.80;53.60;;;;;;6155012;28;81726;-65
2022/07/01 10:31:53;;;;;;;14.10;6.47;;;26.70;53.30;;;;;;6146644;28;87842;-64
2022/07/01 10:34:53;;;;;;;10.48;6.38;;;26.80;56.60;;;;;;6156930;28;80519;-65
2022/07/01 10:37:54;;;;;;;8.35;6.28;;;27.10;56.60;;;;;;6157644;28;80803;-62
2022/07/01 10:40:54;;;;;;;10.95;6.70;;;27.30;57.30;;;;;;6151929;28;80711;-64
2022/07/01 10:43:55;;;;;;;21.42;7.03;;;27.50;57.70;;;;;;6154119;28;81302;-63
2022/07/01 10:46:59;;;;;;;11.40;7.45;;;27.70;57.40;;;;;;6144938;28;81562;-64
2022/07/01 10:49:59;;;;;;;14.48;9.43;;;27.90;58.70;;;;;;6158889;28;80833;-61
2022/07/01 10:53:00;;;;;;;23.80;10.93;;;28.20;59.60;;;;;;6154175;28;81019;-63
2022/07/01 10:56:01;;;;;;;15.90;8.82;;;28.40;59.40;;;;;;6147495;28;83173;-63
2022/07/01 10:59:02;;;;;;;15.45;8.70;;;28.50;59.10;;;;;;6143510;28;83251;-63
2022/07/01 11:02:02;;;;;;;22.98;9.05;;;28.50;59.10;;;;;;6147399;28;80539;-63
2022/07/01 11:05:03;;;;;;;23.35;10.40;;;28.60;59.50;;;;;;6149664;28;80569;-63
2022/07/01 11:08:03;;;;;;;15.50;9.68;;;28.70;59.60;;;;;;6154135;28;83037;-71
2022/07/01 11:11:05;;;;;;;12.27;8.35;;;28.70;59.30;;;;;;6162924;28;83436;-65
2022/07/01 11:14:05;;;;;;;14.98;9.05;;;28.80;59.40;;;;;;6160920;28;80765;-71
2022/07/01 11:17:06;;;;;;;15.48;8.13;;;28.80;60.20;;;;;;6162857;28;80455;-75
2022/07/01 11:20:06;;;;;;;17.95;9.70;;;28.80;60.70;;;;;;6162795;28;80525;-73
2022/07/01 11:23:07;;;;;;;16.45;9.20;;;28.80;60.40;;;;;;6151044;28;80244;-75
2022/07/01 11:26:07;;;;;;;14.70;8.60;;;28.90;60.90;;;;;;6159050;28;84217;-64
2022/07/01 11:29:07;;;;;;;20.83;9.48;;;28.90;60.20;;;;;;6161157;28;81563;-76
2022/07/01 11:32:08;;;;;;;15.75;9.25;;;28.90;60.10;;;;;;6162726;28;80228;-73
2022/07/01 11:41:47;;;;;;;15.07;8.48;;;29.10;59.90;;;;;;6160270;28;83567;-69
2022/07/01 11:44:47;;;;;;;11.85;9.65;;;29.10;59.30;;;;;;6160999;28;80847;-63
2022/07/01 11:47:48;;;;;;;18.88;9.75;;;29.10;59.80;;;;;;6159187;28;81644;-63
2022/07/01 11:50:48;;;;;;;19.00;9.55;;;29.10;60.30;;;;;;6152314;28;80576;-64
2022/07/01 11:53:49;;;;;;;21.48;9.90;;;29.00;59.80;;;;;;6155611;28;81581;-65
2022/07/01 11:56:49;;;;;;;13.82;9.48;;;29.10;61.00;;;;;;6159163;28;80795;-64
2022/07/01 11:59:50;;;;;;;19.80;9.63;;;29.10;60.10;;;;;;6150333;28;80421;-62
2022/07/01 12:02:50;;;;;;;16.95;8.85;;;29.10;59.90;;;;;;6159800;28;80203;-66
2022/07/01 12:05:52;;;;;;;17.95;8.77;;;29.10;59.40;;;;;;6152599;28;80283;-64
2022/07/01 12:08:53;;;;;;;16.58;8.95;;;29.20;59.60;;;;;;6160859;28;81629;-63
2022/07/01 12:11:53;;;;;;;14.07;8.82;;;29.20;60.00;;;;;;6148788;28;80513;-65
2022/07/01 12:14:54;;;;;;;13.00;8.95;;;29.20;60.70;;;;;;6159822;28;81802;-64
2022/07/01 12:17:54;;;;;;;12.50;7.95;;;29.20;63.50;;;;;;6162780;28;83442;-64
2022/07/01 12:20:55;;;;;;;13.63;7.70;;;29.00;58.50;;;;;;6168744;28;81124;-65
2022/07/01 12:23:55;;;;;;;10.15;7.47;;;28.70;56.00;;;;;;6165095;28;80541;-64
2022/07/01 12:26:56;;;;;;;9.07;7.25;;;28.50;54.60;;;;;;6154560;28;80692;-64
2022/07/01 12:29:58;;;;;;;9.27;7.18;;;28.30;53.90;;;;;;6151542;28;80319;-64
2022/07/01 12:32:58;;;;;;;11.35;7.47;;;28.20;53.20;;;;;;6155868;28;81486;-65
2022/07/01 12:35:59;;;;;;;12.90;6.78;;;28.00;52.70;;;;;;6156774;28;80607;-64
2022/07/01 12:38:59;;;;;;;13.13;6.63;;;27.90;52.60;;;;;;6152005;28;81397;-71
2022/07/01 12:42:00;;;;;;;10.18;7.03;;;27.80;52.70;;;;;;6152371;28;80288;-67
2022/07/01 12:45:00;;;;;;;12.85;6.63;;;28.00;55.50;;;;;;6159374;28;80444;-66
2022/07/01 12:48:01;;;;;;;14.15;6.70;;;28.20;55.60;;;;;;6157452;28;80450;-69
2022/07/01 12:51:01;;;;;;;13.57;7.00;;;28.40;56.10;;;;;;6169014;28;80523;-70
2022/07/01 12:54:02;;;;;;;9.02;6.93;;;28.60;56.30;;;;;;6153963;28;80318;-73
2022/07/01 12:57:02;;;;;;;10.18;6.70;;;28.70;56.50;;;;;;6172680;28;80598;-67
2022/07/01 13:00:03;;;;;;;12.70;7.38;;;28.80;56.20;;;;;;6163899;28;81323;-63
2022/07/01 13:03:03;;;;;;;13.50;7.50;;;28.70;56.20;;;;;;6152898;28;80286;-65
2022/07/01 13:06:04;;;;;;;9.90;6.53;;;28.50;54.00;;;;;;6156819;28;80395;-69
2022/07/01 13:09:04;;;;;;;11.73;7.18;;;28.20;53.00;;;;;;6159472;28;80501;-68
2022/07/01 13:12:05;;;;;;;8.10;6.03;;;28.00;52.80;;;;;;6155115;28;80908;-70
2022/07/01 13:15:05;;;;;;;13.05;7.13;;;27.90;52.40;;;;;;6160069;28;81586;-71
2022/07/01 13:18:06;;;;;;;9.48;6.40;;;27.70;52.00;;;;;;6156733;28;81105;-69
2022/07/01 13:21:07;;;;;;;11.82;6.50;;;27.60;52.00;;;;;;6160598;28;80626;-71
2022/07/01 13:24:07;;;;;;;8.90;6.72;;;27.50;52.00;;;;;;6160315;28;80198;-68
2022/07/01 13:27:07;;;;;;;10.80;6.82;;;27.40;51.60;;;;;;6162822;28;80463;-65
2022/07/01 13:30:08;;;;;;;15.63;6.90;;;27.60;54.60;;;;;;6158747;28;81547;-65
2022/07/01 13:33:08;;;;;;;11.18;6.55;;;27.90;54.60;;;;;;6159379;28;80831;-65
2022/07/01 13:36:10;;;;;;;30.15;6.75;;;28.20;54.00;;;;;;6160012;28;80876;-70
2022/07/01 13:39:11;;;;;;;20.00;7.03;;;28.30;54.40;;;;;;6159996;28;83832;-71
2022/07/01 13:42:11;;;;;;;11.13;5.90;;;28.50;53.90;;;;;;6153694;28;80425;-65
2022/07/01 13:45:13;;;;;;;14.73;6.72;;;28.60;53.80;;;;;;6156761;28;81556;-66
2022/07/01 13:48:13;;;;;;;9.70;6.45;;;28.70;53.80;;;;;;6154903;28;81793;-65
2022/07/01 13:51:14;;;;;;;10.23;6.50;;;28.80;53.40;;;;;;6157502;28;81250;-72
2022/07/01 13:54:14;;;;;;;9.68;6.15;;;28.90;53.70;;;;;;6147130;28;80932;-70
2022/07/01 13:57:15;;;;;;;12.10;6.88;;;28.90;53.80;;;;;;6146338;28;80826;-71
2022/07/01 14:00:15;;;;;;;12.70;6.75;;;29.00;54.40;;;;;;6143938;28;83283;-64
2022/07/01 14:03:16;;;;;;;11.40;6.20;;;29.00;54.30;;;;;;6146216;28;80764;-67
2022/07/01 14:06:16;;;;;;;7.60;5.90;;;29.20;54.70;;;;;;6140422;28;80441;-66
2022/07/01 14:09:17;;;;;;;9.02;5.93;;;29.20;54.80;;;;;;6141614;28;80519;-66
2022/07/01 14:12:17;;;;;;;13.05;6.47;;;29.20;54.20;;;;;;6143595;28;82060;-66
2022/07/01 14:15:18;;;;;;;10.05;6.93;;;29.30;55.10;;;;;;6140857;28;81098;-66
2022/07/01 14:18:18;;;;;;;10.00;6.15;;;29.30;54.70;;;;;;6149690;28;82175;-67
2022/07/01 14:21:20;;;;;;;14.98;6.60;;;29.30;55.40;;;;;;6148846;28;80466;-67
2022/07/01 14:24:21;;;;;;;12.90;6.53;;;29.40;55.70;;;;;;6158870;28;80871;-66
2022/07/01 14:27:21;;;;;;;8.25;6.80;;;29.40;55.90;;;;;;6160677;28;80339;-66
2022/07/01 14:30:22;;;;;;;7.03;6.03;;;29.40;55.70;;;;;;6157236;28;80297;-67
2022/07/01 14:33:22;;;;;;;11.30;6.28;;;29.50;56.40;;;;;;6159621;28;80734;-73
2022/07/01 14:36:23;;;;;;;9.55;6.30;;;29.40;56.00;;;;;;6157463;28;80165;-63
2022/07/01 14:39:23;;;;;;;8.02;6.15;;;29.50;56.40;;;;;;6159380;28;80206;-67
2022/07/01 14:42:24;;;;;;;9.70;7.07;;;29.50;56.50;;;;;;6149366;28;80919;-63
2022/07/01 14:45:24;;;;;;;10.82;6.40;;;29.50;56.90;;;;;;6161082;28;80470;-63
2022/07/01 14:48:25;;;;;;;9.77;6.28;;;29.50;57.20;;;;;;6150010;28;81130;-62
2022/07/01 14:51:25;;;;;;;13.13;6.40;;;29.50;57.60;;;;;;6161901;28;81222;-62
2022/07/01 14:54:26;;;;;;;7.68;6.40;;;29.50;57.00;;;;;;6162091;28;80283;-62
2022/07/01 14:57:26;;;;;;;12.48;6.15;;;29.50;57.80;;;;;;6162434;28;80937;-63
2022/07/01 15:00:28;;;;;;;13.70;7.40;;;29.50;57.60;;;;;;6164112;28;80817;-63
2022/07/01 15:03:29;;;;;;;13.23;7.30;;;29.40;57.60;;;;;;6162130;28;80789;-63
2022/07/01 15:06:29;;;;;;;10.30;6.63;;;29.10;54.50;;;;;;6161699;28;80534;-62
2022/07/01 15:09:30;;;;;;;12.40;6.25;;;28.80;52.70;;;;;;6155264;28;81708;-62
2022/07/01 15:12:30;;;;;;;9.15;6.28;;;28.60;52.10;;;;;;6157732;28;81321;-63
2022/07/01 15:15:31;;;;;;;10.93;5.88;;;28.40;51.80;;;;;;6162101;28;80663;-63
2022/07/01 15:18:32;;;;;;;8.35;6.22;;;28.20;51.30;;;;;;6150331;28;80583;-63
2022/07/01 15:21:33;;;;;;;10.27;6.95;;;28.00;51.10;;;;;;6146336;28;80485;-65
2022/07/01 15:24:33;;;;;;;15.90;6.70;;;27.90;51.00;;;;;;6141054;28;80393;-63
2022/07/01 15:27:34;;;;;;;11.35;6.13;;;27.70;50.80;;;;;;6142340;28;80865;-63
2022/07/01 15:30:34;;;;;;;10.07;6.63;;;27.60;50.80;;;;;;6155074;28;82604;-63
2022/07/01 15:33:35;;;;;;;15.77;6.38;;;27.50;50.50;;;;;;6158484;28;82177;-64
2022/07/01 15:36:35;;;;;;;8.52;5.80;;;27.40;50.70;;;;;;6156179;28;81489;-64
2022/07/01 15:39:36;;;;;;;15.55;6.78;;;27.40;50.40;;;;;;6160799;28;80674;-63
2022/07/01 15:42:36;;;;;;;11.00;5.38;;;27.30;50.60;;;;;;6150538;28;80133;-63